createdAt,value
2019-04-29T00:01:05.126Z,99.90
2019-04-29T00:03:34.446Z,99.90
2019-04-29T00:06:03.807Z,99.90
2019-04-29T00:08:33.132Z,99.90
2019-04-29T00:11:02.589Z,99.90
2019-04-29T00:13:32.131Z,99.90
2019-04-29T00:16:23.354Z,99.90
2019-04-29T00:19:02.620Z,99.90
2019-04-29T00:21:31.983Z,99.90
2019-04-29T00:24:04.081Z,99.90
2019-04-29T00:26:32.350Z,99.90
2019-04-29T00:29:01.720Z,99.90
2019-04-29T00:31:31.072Z,99.90
2019-04-29T00:34:00.427Z,99.90
2019-04-29T00:36:33.922Z,99.90
2019-04-29T00:39:38.578Z,99.90
2019-04-29T00:42:18.071Z,99.90
2019-04-29T00:44:47.445Z,99.90
2019-04-29T00:47:16.760Z,99.90
2019-04-29T00:49:46.069Z,99.90
2019-04-29T00:52:15.514Z,99.90
2019-04-29T00:54:50.389Z,99.90
2019-04-29T00:57:19.753Z,99.90
2019-04-29T00:59:49.170Z,99.90
2019-04-29T01:02:18.494Z,99.90
2019-04-29T01:04:47.941Z,99.90
2019-04-29T01:07:17.284Z,99.90
2019-04-29T01:09:46.620Z,99.90
2019-04-29T01:12:15.952Z,99.90
2019-04-29T01:14:45.238Z,99.90
2019-04-29T01:17:14.565Z,99.90
2019-04-29T01:19:43.972Z,99.90
2019-04-29T01:22:13.373Z,99.90
2019-04-29T01:24:42.723Z,99.90
2019-04-29T01:27:20.028Z,99.90
2019-04-29T01:29:49.404Z,99.90
2019-04-29T01:32:18.720Z,99.90
2019-04-29T01:34:53.048Z,99.90
2019-04-29T01:37:34.153Z,99.90
2019-04-29T01:40:20.766Z,99.90
2019-04-29T01:42:50.160Z,99.90
2019-04-29T01:45:19.532Z,99.90
2019-04-29T01:47:48.903Z,99.90
2019-04-29T01:50:18.288Z,99.90
2019-04-29T01:52:47.635Z,99.90
2019-04-29T01:55:17.065Z,99.90
2019-04-29T01:57:46.391Z,99.90
2019-04-29T02:00:17.188Z,99.90
2019-04-29T02:02:46.480Z,99.90
2019-04-29T02:05:15.893Z,99.90
2019-04-29T02:07:45.240Z,99.90
2019-04-29T02:10:20.924Z,99.90
2019-04-29T02:12:50.250Z,99.90
2019-04-29T02:15:19.635Z,99.90
2019-04-29T02:17:48.969Z,99.90
2019-04-29T02:20:18.360Z,99.90
2019-04-29T02:23:09.637Z,99.90
2019-04-29T02:25:41.053Z,99.90
2019-04-29T02:28:10.380Z,99.90
2019-04-29T02:30:44.451Z,99.90
2019-04-29T02:33:14.048Z,99.90
2019-04-29T02:35:43.444Z,99.90
2019-04-29T02:38:43.639Z,99.90
2019-04-29T02:41:20.083Z,99.90
2019-04-29T02:43:51.162Z,99.90
2019-04-29T02:46:20.461Z,99.90
2019-04-29T02:48:49.852Z,99.90
2019-04-29T02:51:36.760Z,99.90
2019-04-29T02:54:06.136Z,99.90
2019-04-29T02:56:35.514Z,99.90
2019-04-29T02:59:05.928Z,99.90
2019-04-29T03:01:59.951Z,99.90
2019-04-29T03:04:31.682Z,99.90
2019-04-29T03:07:01.105Z,99.90
2019-04-29T03:09:32.413Z,99.90
2019-04-29T03:12:02.102Z,99.90
2019-04-29T03:14:31.664Z,99.90
2019-04-29T03:17:01.062Z,99.90
2019-04-29T03:19:34.552Z,99.90
2019-04-29T03:22:05.292Z,99.90
2019-04-29T03:24:34.985Z,99.90
2019-04-29T03:27:04.284Z,99.90
2019-04-29T03:29:33.612Z,99.90
2019-04-29T03:32:02.957Z,99.90
2019-04-29T03:34:32.397Z,99.90
2019-04-29T03:37:01.817Z,99.90
2019-04-29T03:39:31.209Z,99.90
2019-04-29T03:42:00.626Z,99.90
2019-04-29T03:44:29.968Z,99.90
2019-04-29T03:46:59.320Z,99.90
2019-04-29T03:49:28.643Z,99.90
2019-04-29T03:51:58.013Z,99.90
2019-04-29T03:54:27.440Z,99.90
2019-04-29T03:56:56.768Z,99.90
2019-04-29T03:59:26.120Z,99.90
2019-04-29T04:02:07.757Z,99.90
2019-04-29T04:04:57.457Z,99.90
2019-04-29T04:08:00.654Z,99.90
2019-04-29T04:10:30.065Z,99.90
2019-04-29T04:12:59.425Z,99.90
2019-04-29T04:15:28.867Z,99.90
2019-04-29T04:18:03.432Z,99.90
2019-04-29T04:20:32.828Z,99.90
2019-04-29T04:23:02.221Z,99.90
2019-04-29T04:25:31.621Z,99.90
2019-04-29T04:28:01.001Z,99.90
2019-04-29T04:30:30.335Z,99.90
2019-04-29T04:32:59.713Z,99.90
2019-04-29T04:35:29.324Z,99.90
2019-04-29T04:37:58.691Z,99.90
2019-04-29T04:40:33.222Z,99.90
2019-04-29T04:43:02.674Z,99.90
2019-04-29T04:45:31.970Z,99.90
2019-04-29T04:48:01.340Z,99.90
2019-04-29T04:50:30.675Z,99.90
2019-04-29T04:53:00.447Z,99.90
2019-04-29T04:55:32.097Z,99.90
2019-04-29T04:58:01.483Z,99.90
2019-04-29T05:00:32.719Z,99.90
2019-04-29T05:03:02.029Z,99.90
2019-04-29T05:05:32.165Z,99.90
2019-04-29T05:08:01.574Z,99.90
2019-04-29T05:10:30.947Z,99.90
2019-04-29T05:13:00.373Z,99.90
2019-04-29T05:15:29.854Z,99.90
2019-04-29T05:17:59.240Z,99.90
2019-04-29T05:20:28.716Z,99.90
2019-04-29T05:23:00.835Z,99.90
2019-04-29T05:25:34.337Z,99.90
2019-04-29T05:28:04.072Z,99.90
2019-04-29T05:30:33.848Z,99.90
2019-04-29T05:33:03.202Z,99.90
2019-04-29T05:35:40.251Z,99.90
2019-04-29T05:38:18.775Z,94.90
2019-04-29T05:40:50.288Z,86.60
2019-04-29T05:43:26.979Z,80.60
2019-04-29T05:46:17.335Z,75.60
2019-04-29T05:48:44.756Z,66.50
2019-04-29T05:51:31.731Z,63.50
2019-04-29T05:54:01.979Z,61.60
2019-04-29T05:56:31.463Z,59.60
2019-04-29T05:59:00.760Z,56.50
2019-04-29T06:01:31.270Z,55.40
2019-04-29T06:04:00.599Z,53.30
2019-04-29T06:06:29.968Z,52.40
2019-04-29T06:08:59.291Z,51.70
2019-04-29T06:11:28.678Z,50.80
2019-04-29T06:13:58.013Z,49.50
2019-04-29T06:16:27.457Z,48.30
2019-04-29T06:19:00.449Z,48.50
2019-04-29T06:21:28.083Z,47.90
2019-04-29T06:23:59.296Z,47.00
2019-04-29T06:26:28.569Z,47.40
2019-04-29T06:28:58.036Z,46.50
2019-04-29T06:31:27.361Z,46.70
2019-04-29T06:34:00.735Z,45.20
2019-04-29T06:36:27.801Z,44.40
2019-04-29T06:38:57.139Z,44.10
2019-04-29T06:41:26.520Z,43.20
2019-04-29T06:43:56.257Z,42.40
2019-04-29T06:46:25.829Z,42.10
2019-04-29T06:49:09.225Z,40.60
2019-04-29T06:51:26.260Z,40.40
2019-04-29T06:53:55.556Z,40.60
2019-04-29T06:56:24.981Z,40.50
2019-04-29T06:58:54.352Z,39.90
2019-04-29T07:01:23.716Z,39.80
2019-04-29T07:03:55.780Z,39.90
2019-04-29T07:06:24.193Z,39.50
2019-04-29T07:08:53.536Z,39.70
2019-04-29T07:11:23.027Z,39.70
2019-04-29T07:13:53.486Z,38.90
2019-04-29T07:16:27.207Z,39.10
2019-04-29T07:18:54.657Z,37.70
2019-04-29T07:21:24.048Z,37.90
2019-04-29T07:23:53.423Z,37.30
2019-04-29T07:26:22.764Z,37.60
2019-04-29T07:28:53.516Z,36.40
2019-04-29T07:31:23.208Z,36.20
2019-04-29T07:33:53.648Z,35.80
2019-04-29T07:36:23.934Z,34.70
2019-04-29T07:38:56.668Z,34.40
2019-04-29T07:41:24.633Z,33.70
2019-04-29T07:43:53.986Z,34.00
2019-04-29T07:46:36.322Z,33.60
2019-04-29T07:49:05.574Z,34.30
2019-04-29T07:51:34.788Z,34.50
2019-04-29T07:54:05.505Z,33.80
2019-04-29T07:56:37.944Z,33.70
2019-04-29T07:59:05.891Z,32.80
2019-04-29T08:01:35.258Z,32.10
2019-04-29T08:04:04.696Z,31.30
2019-04-29T08:06:38.197Z,31.30
2019-04-29T08:09:09.762Z,30.60
2019-04-29T08:11:39.196Z,30.90
2019-04-29T08:14:08.544Z,30.20
2019-04-29T08:16:37.927Z,30.70
2019-04-29T08:19:07.258Z,30.00
2019-04-29T08:21:36.682Z,29.50
2019-04-29T08:24:06.281Z,29.40
2019-04-29T08:26:38.275Z,29.40
2019-04-29T08:29:06.727Z,29.00
2019-04-29T08:31:36.101Z,28.70
2019-04-29T08:34:05.459Z,28.80
2019-04-29T08:36:34.816Z,28.80
2019-04-29T08:39:08.801Z,28.40
2019-04-29T08:41:36.732Z,28.50
2019-04-29T08:44:25.047Z,28.50
2019-04-29T08:46:57.921Z,28.50
2019-04-29T08:49:27.281Z,28.40
2019-04-29T08:51:56.679Z,27.90
2019-04-29T08:54:26.308Z,29.20
2019-04-29T08:57:02.954Z,28.10
2019-04-29T08:59:26.774Z,28.30
2019-04-29T09:01:56.168Z,28.20
2019-04-29T09:04:28.515Z,27.30
2019-04-29T09:06:56.593Z,27.10
2019-04-29T09:09:29.348Z,27.30
2019-04-29T09:11:56.988Z,28.10
2019-04-29T09:14:26.355Z,27.60
2019-04-29T09:16:55.719Z,26.40
2019-04-29T09:19:25.092Z,27.90
2019-04-29T09:21:58.086Z,28.60
2019-04-29T09:24:27.513Z,28.30
2019-04-29T09:27:09.682Z,27.30
2019-04-29T09:29:40.093Z,27.80
2019-04-29T09:32:09.452Z,26.80
2019-04-29T09:34:38.915Z,25.90
2019-04-29T09:37:08.219Z,25.80
2019-04-29T09:39:43.317Z,26.80
2019-04-29T09:42:36.205Z,25.90
2019-04-29T09:45:24.524Z,27.50
2019-04-29T09:47:53.998Z,27.90
2019-04-29T09:50:23.392Z,28.10
2019-04-29T09:52:52.713Z,28.10
2019-04-29T09:55:23.035Z,27.30
2019-04-29T09:57:52.339Z,28.00
2019-04-29T10:00:36.362Z,27.70
2019-04-29T10:03:12.791Z,28.50
2019-04-29T10:05:45.049Z,28.80
2019-04-29T10:08:14.382Z,28.40
2019-04-29T10:10:44.115Z,28.10
2019-04-29T10:13:13.434Z,27.60
2019-04-29T10:16:02.141Z,28.30
2019-04-29T10:18:56.541Z,29.10
2019-04-29T10:21:25.899Z,29.40
2019-04-29T10:23:55.265Z,27.80
2019-04-29T10:26:24.609Z,27.30
2019-04-29T10:28:58.596Z,27.50
2019-04-29T10:31:27.961Z,28.40
2019-04-29T10:33:57.363Z,29.60
2019-04-29T10:36:26.756Z,31.60
2019-04-29T10:38:57.011Z,31.70
2019-04-29T10:41:40.423Z,31.80
2019-04-29T10:44:40.868Z,31.40
2019-04-29T10:47:34.570Z,30.80
2019-04-29T10:50:10.718Z,30.20
2019-04-29T10:52:40.863Z,30.30
2019-04-29T10:55:11.292Z,31.70
2019-04-29T10:57:44.720Z,32.80
2019-04-29T11:00:23.388Z,33.10
2019-04-29T11:02:52.791Z,34.20
2019-04-29T11:05:30.723Z,33.20
2019-04-29T11:08:04.764Z,33.00
2019-04-29T11:10:34.281Z,33.20
2019-04-29T11:13:03.763Z,34.60
2019-04-29T11:15:35.794Z,35.60
2019-04-29T11:18:06.004Z,35.50
2019-04-29T11:20:36.690Z,35.10
2019-04-29T11:23:17.622Z,34.00
2019-04-29T11:26:03.613Z,34.10
2019-04-29T11:28:34.509Z,34.00
2019-04-29T11:31:03.843Z,35.50
2019-04-29T11:33:41.791Z,35.30
2019-04-29T11:36:12.873Z,35.70
2019-04-29T11:38:42.259Z,35.60
2019-04-29T11:41:17.919Z,36.30
2019-04-29T11:43:42.678Z,36.50
2019-04-29T11:46:14.485Z,35.80
2019-04-29T11:48:43.143Z,35.60
2019-04-29T11:51:22.216Z,36.00
2019-04-29T11:53:51.583Z,35.10
2019-04-29T11:56:20.924Z,34.80
2019-04-29T11:59:09.233Z,35.10
2019-04-29T12:02:03.542Z,35.30
2019-04-29T12:04:36.823Z,36.80
2019-04-29T12:07:06.472Z,37.10
2019-04-29T12:09:35.795Z,36.90
2019-04-29T12:12:07.793Z,38.00
2019-04-29T12:14:55.366Z,37.90
2019-04-29T12:17:31.322Z,38.50
2019-04-29T12:20:05.155Z,36.60
2019-04-29T12:22:47.766Z,35.70
2019-04-29T12:25:06.009Z,34.70
2019-04-29T12:27:35.373Z,35.80
2019-04-29T12:30:07.150Z,36.70
2019-04-29T12:32:44.275Z,37.00
2019-04-29T12:35:35.537Z,37.50
2019-04-29T12:38:20.689Z,37.70
2019-04-29T12:41:20.184Z,38.00
2019-04-29T12:43:48.571Z,36.90
2019-04-29T12:46:21.800Z,37.70
2019-04-29T12:48:51.466Z,38.20
2019-04-29T12:51:21.553Z,37.10
2019-04-29T12:53:51.534Z,37.50
2019-04-29T12:56:30.772Z,37.40
2019-04-29T12:59:01.864Z,37.50
2019-04-29T13:02:00.486Z,38.20
2019-04-29T13:04:49.763Z,38.20
2019-04-29T13:07:48.996Z,37.80
2019-04-29T13:10:37.857Z,37.10
2019-04-29T13:13:05.842Z,36.70
2019-04-29T13:15:48.571Z,36.90
2019-04-29T13:18:24.523Z,37.00
2019-04-29T13:20:54.668Z,37.50
2019-04-29T13:23:34.729Z,37.40
2019-04-29T13:25:57.800Z,37.40
2019-04-29T13:28:30.173Z,36.50
2019-04-29T13:30:58.451Z,37.70
2019-04-29T13:33:27.845Z,38.80
2019-04-29T13:35:57.167Z,38.40
2019-04-29T13:38:26.548Z,38.40
2019-04-29T13:41:11.774Z,38.00
2019-04-29T13:43:27.267Z,37.30
2019-04-29T13:46:09.167Z,37.60
2019-04-29T13:49:13.681Z,37.60
2019-04-29T13:51:43.782Z,37.80
2019-04-29T13:54:13.116Z,37.80
2019-04-29T13:56:55.491Z,38.10
2019-04-29T13:59:17.384Z,37.60
2019-04-29T14:02:01.163Z,37.70
2019-04-29T14:04:27.155Z,37.30
2019-04-29T14:06:57.551Z,37.30
2019-04-29T14:09:27.136Z,38.20
2019-04-29T14:12:02.843Z,38.30
2019-04-29T14:14:28.327Z,37.40
2019-04-29T14:17:17.034Z,38.10
2019-04-29T14:19:44.277Z,37.70
2019-04-29T14:22:00.036Z,38.60
2019-04-29T14:24:29.389Z,38.40
2019-04-29T14:26:58.730Z,38.80
2019-04-29T14:29:30.118Z,39.20
2019-04-29T14:32:01.322Z,39.90
2019-04-29T14:34:36.798Z,39.50
2019-04-29T14:37:21.177Z,40.10
2019-04-29T14:39:37.838Z,40.00
2019-04-29T14:42:35.136Z,39.90
2019-04-29T14:45:22.929Z,39.70
2019-04-29T14:48:17.366Z,39.10
2019-04-29T14:50:49.485Z,38.80
2019-04-29T14:53:19.545Z,39.00
2019-04-29T14:55:49.555Z,39.30
2019-04-29T14:58:18.979Z,39.30
2019-04-29T15:01:06.090Z,38.80
2019-04-29T15:03:52.221Z,38.60
2019-04-29T15:06:21.718Z,38.90
2019-04-29T15:08:51.154Z,39.80
2019-04-29T15:11:31.628Z,40.00
2019-04-29T15:13:57.837Z,39.30
2019-04-29T15:16:34.844Z,39.10
2019-04-29T15:19:23.134Z,39.10
2019-04-29T15:22:11.569Z,39.40
2019-04-29T15:24:41.061Z,39.30
2019-04-29T15:27:10.474Z,40.00
2019-04-29T15:29:39.823Z,40.60
2019-04-29T15:32:11.080Z,41.00
2019-04-29T15:34:43.885Z,41.50
2019-04-29T15:37:11.431Z,42.40
2019-04-29T15:39:45.827Z,41.30
2019-04-29T15:42:11.914Z,40.70
2019-04-29T15:44:41.367Z,40.70
2019-04-29T15:47:10.707Z,40.90
2019-04-29T15:49:40.056Z,41.30
2019-04-29T15:52:09.449Z,41.10
2019-04-29T15:54:38.879Z,41.40
2019-04-29T15:57:10.807Z,41.40
2019-04-29T15:59:48.620Z,41.60
2019-04-29T16:02:10.392Z,42.80
2019-04-29T16:04:47.209Z,42.30
2019-04-29T16:07:26.140Z,42.80
2019-04-29T16:10:21.959Z,42.90
2019-04-29T16:12:56.151Z,43.00
2019-04-29T16:15:25.527Z,43.10
2019-04-29T16:17:54.960Z,43.60
2019-04-29T16:20:24.255Z,43.20
2019-04-29T16:22:54.233Z,43.80
2019-04-29T16:25:24.723Z,44.30
2019-04-29T16:27:54.159Z,44.60
2019-04-29T16:30:25.942Z,45.00
2019-04-29T16:32:54.563Z,45.20
2019-04-29T16:35:25.835Z,45.70
2019-04-29T16:37:55.092Z,45.90
2019-04-29T16:40:26.464Z,46.20
2019-04-29T16:43:01.805Z,46.20
2019-04-29T16:45:51.629Z,46.70
2019-04-29T16:48:20.597Z,47.20
2019-04-29T16:50:49.985Z,47.00
2019-04-29T16:53:19.489Z,47.20
2019-04-29T16:55:49.124Z,47.90
2019-04-29T16:58:18.752Z,48.70
2019-04-29T17:00:52.775Z,48.70
2019-04-29T17:03:19.583Z,48.70
2019-04-29T17:05:48.938Z,48.70
2019-04-29T17:08:19.958Z,48.90
2019-04-29T17:10:58.111Z,49.00
2019-04-29T17:13:27.454Z,49.60
2019-04-29T17:15:56.869Z,49.80
2019-04-29T17:18:26.219Z,50.10
2019-04-29T17:21:04.514Z,50.40
2019-04-29T17:23:26.673Z,51.00
2019-04-29T17:25:56.018Z,52.30
2019-04-29T17:28:47.408Z,53.80
2019-04-29T17:31:36.259Z,53.90
2019-04-29T17:34:29.188Z,55.50
2019-04-29T17:36:47.162Z,60.60
2019-04-29T17:39:17.184Z,70.60
2019-04-29T17:41:46.575Z,79.00
2019-04-29T17:44:33.324Z,81.40
2019-04-29T17:47:15.700Z,90.10
2019-04-29T17:50:02.165Z,92.40
2019-04-29T17:52:30.104Z,91.50
2019-04-29T17:55:11.529Z,91.40
2019-04-29T18:03:28.271Z,95.10
2019-04-29T18:06:07.754Z,95.40
2019-04-29T18:08:42.220Z,96.30
2019-04-29T18:11:11.603Z,97.30
2019-04-29T18:13:41.033Z,96.90
2019-04-29T18:16:18.094Z,97.90
2019-04-29T18:18:57.297Z,99.90
2019-04-29T18:21:58.653Z,99.90
2019-04-29T18:24:45.249Z,99.90
2019-04-29T18:27:16.956Z,99.90
2019-04-29T18:29:46.368Z,99.90
2019-04-29T18:32:15.742Z,99.90
2019-04-29T18:34:45.338Z,99.90
2019-04-29T18:37:15.267Z,99.90
2019-04-29T18:42:43.413Z,99.90
2019-04-29T18:45:13.208Z,99.90
2019-04-29T18:47:42.814Z,99.90
2019-04-29T18:50:12.333Z,99.90
2019-04-29T18:52:41.748Z,99.90
2019-04-29T18:55:11.363Z,99.90
2019-04-29T18:57:40.757Z,99.90
2019-04-29T19:00:12.435Z,99.90
2019-04-29T19:02:46.085Z,99.90
2019-04-29T19:05:32.282Z,99.90
2019-04-29T19:08:11.434Z,99.90
2019-04-29T19:10:34.376Z,99.90
2019-04-29T19:13:05.402Z,99.90
2019-04-29T19:15:31.924Z,99.90
2019-04-29T19:18:01.978Z,99.90
2019-04-29T19:20:31.503Z,99.90
2019-04-29T19:23:08.222Z,99.90
2019-04-29T19:25:31.989Z,99.90
2019-04-29T19:28:11.765Z,99.90
2019-04-29T19:30:32.504Z,99.90
2019-04-29T19:33:01.950Z,99.90
2019-04-29T19:35:36.982Z,99.90
2019-04-29T19:38:02.606Z,99.90
2019-04-29T19:40:38.878Z,99.90
2019-04-29T19:43:02.962Z,99.90
2019-04-29T19:45:32.359Z,99.90
2019-04-29T19:48:05.777Z,99.90
2019-04-29T19:50:36.139Z,99.90
2019-04-29T19:53:06.543Z,99.90
2019-04-29T19:55:41.836Z,99.90
2019-04-29T19:58:10.128Z,99.90
2019-04-29T20:00:39.443Z,99.90
2019-04-29T20:03:22.784Z,99.90
2019-04-29T20:06:09.118Z,99.90
2019-04-29T20:08:51.107Z,99.90
2019-04-29T20:11:14.142Z,99.90
2019-04-29T20:13:58.443Z,99.90
2019-04-29T20:16:56.740Z,99.90
2019-04-29T20:19:29.196Z,99.90
2019-04-29T20:22:07.578Z,99.90
2019-04-29T20:24:32.631Z,99.90
2019-04-29T20:27:02.280Z,99.90
2019-04-29T20:29:33.844Z,99.90
2019-04-29T20:32:02.997Z,99.90
2019-04-29T20:34:33.297Z,99.90
2019-04-29T20:37:02.889Z,99.90
2019-04-29T20:39:32.679Z,99.90
2019-04-29T20:42:08.627Z,99.90
2019-04-29T20:44:36.596Z,99.90
2019-04-29T20:47:19.519Z,99.90
2019-04-29T20:49:39.559Z,99.90
2019-04-29T20:52:21.630Z,99.90
2019-04-29T20:55:00.871Z,99.90
2019-04-29T20:57:27.746Z,99.90
2019-04-29T20:59:57.546Z,99.90
2019-04-29T21:02:35.334Z,99.90
2019-04-29T21:05:09.523Z,99.90
2019-04-29T21:07:37.543Z,99.90
2019-04-29T21:10:08.693Z,99.90
2019-04-29T21:13:03.050Z,99.90
2019-04-29T21:15:51.795Z,99.90
2019-04-29T21:18:18.616Z,99.90
2019-04-29T21:20:48.009Z,99.90
2019-04-29T21:23:17.418Z,99.90
2019-04-29T21:25:46.761Z,99.90
2019-04-29T21:28:16.103Z,99.90
2019-04-29T21:30:45.446Z,99.90
2019-04-29T21:33:21.017Z,99.90
2019-04-29T21:36:15.310Z,99.90
2019-04-29T21:39:01.864Z,99.90
2019-04-29T21:41:33.665Z,99.90
2019-04-29T21:44:03.178Z,99.90
2019-04-29T21:46:37.173Z,99.90
2019-04-29T21:49:11.426Z,99.90
2019-04-29T21:51:41.740Z,99.90
2019-04-29T21:54:14.218Z,99.90
2019-04-29T21:56:46.528Z,99.90
2019-04-29T21:59:17.797Z,99.90
2019-04-29T22:01:48.607Z,99.90
2019-04-29T22:04:17.924Z,99.90
2019-04-29T22:06:47.548Z,99.90
2019-04-29T22:09:18.624Z,99.90
2019-04-29T22:11:49.338Z,99.90
2019-04-29T22:14:19.782Z,99.90
2019-04-29T22:16:54.366Z,99.90
2019-04-29T22:19:26.146Z,99.90
2019-04-29T22:21:57.271Z,99.90
2019-04-29T22:24:26.251Z,99.90
2019-04-29T22:27:03.629Z,99.90
2019-04-29T22:29:32.050Z,99.90
2019-04-29T22:32:00.229Z,99.90
2019-04-29T22:34:29.562Z,99.90
2019-04-29T22:37:01.124Z,99.90
2019-04-29T22:39:33.092Z,99.90
2019-04-29T22:42:13.377Z,99.90
2019-04-29T22:44:56.433Z,99.90
2019-04-29T22:47:24.970Z,99.90
2019-04-29T22:49:58.691Z,99.90
2019-04-29T22:52:29.843Z,99.90
2019-04-29T22:55:01.431Z,99.90
2019-04-29T22:57:31.606Z,99.90
2019-04-29T23:00:05.205Z,99.90
2019-04-29T23:02:34.605Z,99.90
2019-04-29T23:05:04.113Z,99.90
2019-04-29T23:07:37.770Z,99.90
2019-04-29T23:10:07.280Z,99.90
2019-04-29T23:12:36.696Z,99.90
2019-04-29T23:15:06.091Z,99.90
2019-04-29T23:17:35.587Z,99.90
2019-04-29T23:20:28.833Z,99.90
2019-04-29T23:23:05.571Z,99.90
2019-04-29T23:25:41.643Z,99.90
2019-04-29T23:28:14.132Z,99.90
2019-04-29T23:30:43.476Z,99.90
2019-04-29T23:33:15.109Z,99.90
2019-04-29T23:35:45.468Z,99.90
2019-04-29T23:38:16.040Z,99.90
2019-04-29T23:40:45.343Z,99.90
2019-04-29T23:43:15.801Z,99.90
2019-04-29T23:45:46.719Z,99.90
2019-04-29T23:48:23.723Z,99.90
2019-04-29T23:50:54.672Z,99.90
2019-04-29T23:53:25.283Z,99.90
2019-04-29T23:55:55.405Z,99.90
2019-04-29T23:59:01.695Z,99.90
